sensor_id;sensor_type;location;lat;lon;timestamp;P1;durP1;ratioP1;P2;durP2;ratioP2
2564;SDS011;1292;48.020;7.822;2023-08-17T05:47:42;13.23;;;10.57;;
2564;SDS011;1292;48.020;7.822;2023-08-17T05:50:10;11.90;;;10.03;;
2564;SDS011;1292;48.020;7.822;2023-08-17T05:52:38;15.07;;;11.50;;
2564;SDS011;1292;48.020;7.822;2023-08-17T05:55:07;12.07;;;9.80;;
2564;SDS011;1292;48.020;7.822;2023-08-17T05:57:34;11.30;;;10.10;;
2564;SDS011;1292;48.020;7.822;2023-08-17T06:00:01;11.07;;;9.97;;
2564;SDS011;1292;48.020;7.822;2023-08-17T06:02:29;11.40;;;10.30;;
2564;SDS011;1292;48.020;7.822;2023-08-17T06:04:57;11.63;;;10.47;;
2564;SDS011;1292;48.020;7.822;2023-08-17T06:07:24;10.07;;;9.07;;
2564;SDS011;1292;48.020;7.822;2023-08-17T06:09:50;15.60;;;10.90;;
2564;SDS011;1292;48.020;7.822;2023-08-17T06:12:17;12.73;;;9.83;;
2564;SDS011;1292;48.020;7.822;2023-08-17T06:14:44;10.13;;;8.80;;
2564;SDS011;1292;48.020;7.822;2023-08-17T06:17:11;11.37;;;10.17;;
2564;SDS011;1292;48.020;7.822;2023-08-17T06:19:38;11.37;;;10.27;;
2564;SDS011;1292;48.020;7.822;2023-08-17T06:22:06;13.23;;;11.83;;
2564;SDS011;1292;48.020;7.822;2023-08-17T06:24:33;11.73;;;10.20;;
2564;SDS011;1292;48.020;7.822;2023-08-17T06:27:00;13.17;;;10.30;;
2564;SDS011;1292;48.020;7.822;2023-08-17T06:29:27;10.90;;;9.43;;
2564;SDS011;1292;48.020;7.822;2023-08-17T06:31:53;12.83;;;10.67;;
2564;SDS011;1292;48.020;7.822;2023-08-17T06:34:21;11.90;;;10.40;;
2564;SDS011;1292;48.020;7.822;2023-08-17T06:36:56;12.00;;;10.70;;
2564;SDS011;1292;48.020;7.822;2023-08-17T06:39:24;13.53;;;12.13;;
2564;SDS011;1292;48.020;7.822;2023-08-17T06:41:51;13.23;;;11.80;;
2564;SDS011;1292;48.020;7.822;2023-08-17T06:44:18;11.93;;;10.10;;
2564;SDS011;1292;48.020;7.822;2023-08-17T06:46:45;12.37;;;10.47;;
2564;SDS011;1292;48.020;7.822;2023-08-17T06:49:12;16.97;;;10.97;;
2564;SDS011;1292;48.020;7.822;2023-08-17T06:51:39;11.73;;;10.23;;
2564;SDS011;1292;48.020;7.822;2023-08-17T06:54:07;12.43;;;11.20;;
2564;SDS011;1292;48.020;7.822;2023-08-17T06:56:35;12.93;;;11.53;;
2564;SDS011;1292;48.020;7.822;2023-08-17T06:59:02;13.37;;;12.00;;
2564;SDS011;1292;48.020;7.822;2023-08-17T07:01:29;11.73;;;10.53;;
2564;SDS011;1292;48.020;7.822;2023-08-17T07:03:57;15.13;;;11.53;;
2564;SDS011;1292;48.020;7.822;2023-08-17T07:06:23;11.00;;;9.40;;
2564;SDS011;1292;48.020;7.822;2023-08-17T07:08:50;13.67;;;9.60;;
2564;SDS011;1292;48.020;7.822;2023-08-17T07:11:17;10.63;;;9.43;;
2564;SDS011;1292;48.020;7.822;2023-08-17T07:13:46;10.57;;;9.47;;
2564;SDS011;1292;48.020;7.822;2023-08-17T07:16:13;10.50;;;8.37;;
2564;SDS011;1292;48.020;7.822;2023-08-17T07:18:40;9.87;;;8.53;;
2564;SDS011;1292;48.020;7.822;2023-08-17T07:21:07;10.47;;;9.47;;
2564;SDS011;1292;48.020;7.822;2023-08-17T07:23:33;9.50;;;8.40;;
2564;SDS011;1292;48.020;7.822;2023-08-17T07:26:00;9.87;;;9.03;;
2564;SDS011;1292;48.020;7.822;2023-08-17T07:28:27;10.13;;;8.80;;
2564;SDS011;1292;48.020;7.822;2023-08-17T07:30:55;9.60;;;8.80;;
2564;SDS011;1292;48.020;7.822;2023-08-17T07:33:23;9.83;;;8.93;;
2564;SDS011;1292;48.020;7.822;2023-08-17T07:35:50;12.47;;;10.97;;
2564;SDS011;1292;48.020;7.822;2023-08-17T07:38:18;11.93;;;10.50;;
2564;SDS011;1292;48.020;7.822;2023-08-17T07:40:45;11.20;;;9.97;;
2564;SDS011;1292;48.020;7.822;2023-08-17T07:43:12;11.10;;;9.10;;
2564;SDS011;1292;48.020;7.822;2023-08-17T07:45:39;9.83;;;8.73;;
2564;SDS011;1292;48.020;7.822;2023-08-17T07:48:07;12.47;;;10.40;;
2564;SDS011;1292;48.020;7.822;2023-08-17T07:50:34;13.67;;;10.87;;
2564;SDS011;1292;48.020;7.822;2023-08-17T07:53:00;12.03;;;10.83;;
2564;SDS011;1292;48.020;7.822;2023-08-17T07:55:27;11.27;;;8.53;;
2564;SDS011;1292;48.020;7.822;2023-08-17T07:57:54;10.20;;;9.00;;
2564;SDS011;1292;48.020;7.822;2023-08-17T08:00:21;11.30;;;8.97;;
2564;SDS011;1292;48.020;7.822;2023-08-17T08:02:48;8.20;;;7.40;;
2564;SDS011;1292;48.020;7.822;2023-08-17T08:05:16;11.33;;;9.67;;
2564;SDS011;1292;48.020;7.822;2023-08-17T08:07:43;9.17;;;8.30;;
2564;SDS011;1292;48.020;7.822;2023-08-17T08:10:09;9.80;;;8.40;;
2564;SDS011;1292;48.020;7.822;2023-08-17T08:12:36;9.80;;;7.40;;
2564;SDS011;1292;48.020;7.822;2023-08-17T08:15:03;9.07;;;7.70;;
2564;SDS011;1292;48.020;7.822;2023-08-17T08:17:31;10.60;;;9.50;;
2564;SDS011;1292;48.020;7.822;2023-08-17T08:19:57;11.50;;;9.73;;
2564;SDS011;1292;48.020;7.822;2023-08-17T08:22:26;15.43;;;11.37;;
2564;SDS011;1292;48.020;7.822;2023-08-17T08:24:53;11.80;;;10.60;;
2564;SDS011;1292;48.020;7.822;2023-08-17T08:27:20;11.87;;;10.57;;
2564;SDS011;1292;48.020;7.822;2023-08-17T08:29:47;11.77;;;10.60;;
2564;SDS011;1292;48.020;7.822;2023-08-17T08:32:13;12.90;;;10.63;;
2564;SDS011;1292;48.020;7.822;2023-08-17T08:34:40;11.13;;;10.10;;
2564;SDS011;1292;48.020;7.822;2023-08-17T08:37:07;11.73;;;9.87;;
2564;SDS011;1292;48.020;7.822;2023-08-17T08:39:44;15.53;;;10.93;;
2564;SDS011;1292;48.020;7.822;2023-08-17T08:42:15;13.53;;;12.03;;
2564;SDS011;1292;48.020;7.822;2023-08-17T08:44:42;12.23;;;10.77;;
2564;SDS011;1292;48.020;7.822;2023-08-17T08:47:09;15.70;;;11.23;;
2564;SDS011;1292;48.020;7.822;2023-08-17T08:49:36;12.03;;;9.47;;
2564;SDS011;1292;48.020;7.822;2023-08-17T08:52:06;13.43;;;11.03;;
2564;SDS011;1292;48.020;7.822;2023-08-17T08:54:35;12.80;;;10.40;;
2564;SDS011;1292;48.020;7.822;2023-08-17T08:57:06;13.53;;;10.50;;
2564;SDS011;1292;48.020;7.822;2023-08-17T08:59:37;10.87;;;9.60;;
2564;SDS011;1292;48.020;7.822;2023-08-17T09:02:09;11.93;;;9.30;;
2564;SDS011;1292;48.020;7.822;2023-08-17T09:04:37;11.67;;;10.47;;
2564;SDS011;1292;48.020;7.822;2023-08-17T09:07:03;11.10;;;10.00;;
2564;SDS011;1292;48.020;7.822;2023-08-17T09:09:30;9.90;;;8.90;;
2564;SDS011;1292;48.020;7.822;2023-08-17T09:11:57;10.70;;;9.10;;
2564;SDS011;1292;48.020;7.822;2023-08-17T09:14:25;11.90;;;10.70;;
2564;SDS011;1292;48.020;7.822;2023-08-17T09:16:52;13.23;;;9.80;;
2564;SDS011;1292;48.020;7.822;2023-08-17T09:19:19;15.77;;;11.63;;
2564;SDS011;1292;48.020;7.822;2023-08-17T09:21:46;12.73;;;9.77;;
2564;SDS011;1292;48.020;7.822;2023-08-17T09:24:13;12.90;;;9.90;;
2564;SDS011;1292;48.020;7.822;2023-08-17T09:26:40;12.80;;;11.50;;
2564;SDS011;1292;48.020;7.822;2023-08-17T09:29:16;15.87;;;11.67;;
2564;SDS011;1292;48.020;7.822;2023-08-17T09:31:45;11.30;;;10.20;;
2564;SDS011;1292;48.020;7.822;2023-08-17T09:34:12;13.80;;;9.90;;
2564;SDS011;1292;48.020;7.822;2023-08-17T09:36:41;13.70;;;10.63;;
2564;SDS011;1292;48.020;7.822;2023-08-17T09:39:07;12.27;;;10.97;;
2564;SDS011;1292;48.020;7.822;2023-08-17T09:41:38;15.60;;;11.13;;
2564;SDS011;1292;48.020;7.822;2023-08-17T09:44:05;14.80;;;11.33;;
2564;SDS011;1292;48.020;7.822;2023-08-17T09:46:32;10.50;;;9.50;;
2564;SDS011;1292;48.020;7.822;2023-08-17T09:49:02;12.50;;;9.10;;
2564;SDS011;1292;48.020;7.822;2023-08-17T09:51:30;11.50;;;10.27;;
2564;SDS011;1292;48.020;7.822;2023-08-17T09:53:57;9.60;;;8.70;;
2564;SDS011;1292;48.020;7.822;2023-08-17T09:56:24;12.27;;;10.63;;
2564;SDS011;1292;48.020;7.822;2023-08-17T09:58:52;9.40;;;7.80;;
2564;SDS011;1292;48.020;7.822;2023-08-17T10:01:19;10.60;;;9.57;;
2564;SDS011;1292;48.020;7.822;2023-08-17T10:03:48;10.53;;;9.30;;
2564;SDS011;1292;48.020;7.822;2023-08-17T10:06:22;10.67;;;9.07;;
2564;SDS011;1292;48.020;7.822;2023-08-17T10:08:52;9.50;;;8.60;;
2564;SDS011;1292;48.020;7.822;2023-08-17T10:11:21;9.33;;;8.43;;
2564;SDS011;1292;48.020;7.822;2023-08-17T10:13:51;10.07;;;8.47;;
2564;SDS011;1292;48.020;7.822;2023-08-17T10:16:23;8.23;;;7.40;;
2564;SDS011;1292;48.020;7.822;2023-08-17T10:18:53;8.73;;;7.83;;
2564;SDS011;1292;48.020;7.822;2023-08-17T10:21:27;9.17;;;8.20;;
2564;SDS011;1292;48.020;7.822;2023-08-17T10:23:58;8.97;;;8.07;;
2564;SDS011;1292;48.020;7.822;2023-08-17T10:26:25;11.87;;;9.40;;
2564;SDS011;1292;48.020;7.822;2023-08-17T10:28:52;9.73;;;8.40;;
2564;SDS011;1292;48.020;7.822;2023-08-17T10:31:22;8.87;;;8.07;;
2564;SDS011;1292;48.020;7.822;2023-08-17T10:33:50;8.57;;;7.77;;
2564;SDS011;1292;48.020;7.822;2023-08-17T10:36:17;8.97;;;7.20;;
2564;SDS011;1292;48.020;7.822;2023-08-17T10:38:46;7.43;;;6.83;;
2564;SDS011;1292;48.020;7.822;2023-08-17T10:41:13;8.00;;;7.30;;
2564;SDS011;1292;48.020;7.822;2023-08-17T10:43:52;7.23;;;6.43;;
2564;SDS011;1292;48.020;7.822;2023-08-17T10:46:20;7.00;;;6.40;;
2564;SDS011;1292;48.020;7.822;2023-08-17T10:48:47;7.03;;;6.40;;
2564;SDS011;1292;48.020;7.822;2023-08-17T10:51:14;7.70;;;7.00;;
2564;SDS011;1292;48.020;7.822;2023-08-17T10:53:42;6.60;;;5.90;;
2564;SDS011;1292;48.020;7.822;2023-08-17T10:56:14;6.93;;;6.30;;
2564;SDS011;1292;48.020;7.822;2023-08-17T10:58:43;7.30;;;6.67;;
2564;SDS011;1292;48.020;7.822;2023-08-17T11:01:10;6.50;;;6.07;;
2564;SDS011;1292;48.020;7.822;2023-08-17T11:03:39;6.63;;;6.10;;
2564;SDS011;1292;48.020;7.822;2023-08-17T11:06:15;6.00;;;5.50;;
2564;SDS011;1292;48.020;7.822;2023-08-17T11:08:53;6.37;;;5.77;;
2564;SDS011;1292;48.020;7.822;2023-08-17T11:11:23;7.10;;;6.50;;
2564;SDS011;1292;48.020;7.822;2023-08-17T11:13:50;6.33;;;5.83;;
2564;SDS011;1292;48.020;7.822;2023-08-17T11:16:19;6.60;;;5.83;;
2564;SDS011;1292;48.020;7.822;2023-08-17T11:18:46;4.50;;;4.10;;
2564;SDS011;1292;48.020;7.822;2023-08-17T11:21:14;5.37;;;4.97;;
2564;SDS011;1292;48.020;7.822;2023-08-17T11:23:41;5.00;;;4.60;;
2564;SDS011;1292;48.020;7.822;2023-08-17T11:26:08;4.30;;;3.90;;
2564;SDS011;1292;48.020;7.822;2023-08-17T11:28:37;5.33;;;3.97;;
2564;SDS011;1292;48.020;7.822;2023-08-17T11:31:06;5.03;;;4.00;;
2564;SDS011;1292;48.020;7.822;2023-08-17T11:33:35;4.03;;;3.57;;
2564;SDS011;1292;48.020;7.822;2023-08-17T11:36:03;7.47;;;4.30;;
2564;SDS011;1292;48.020;7.822;2023-08-17T11:38:32;4.30;;;4.00;;
2564;SDS011;1292;48.020;7.822;2023-08-17T11:41:00;5.47;;;4.20;;
2564;SDS011;1292;48.020;7.822;2023-08-17T11:43:28;9.23;;;4.30;;
2564;SDS011;1292;48.020;7.822;2023-08-17T11:45:57;5.87;;;4.00;;
2564;SDS011;1292;48.020;7.822;2023-08-17T11:48:25;3.77;;;3.47;;
2564;SDS011;1292;48.020;7.822;2023-08-17T11:50:52;4.27;;;3.90;;
2564;SDS011;1292;48.020;7.822;2023-08-17T11:53:20;3.50;;;3.20;;
2564;SDS011;1292;48.020;7.822;2023-08-17T11:55:47;3.70;;;3.40;;
2564;SDS011;1292;48.020;7.822;2023-08-17T11:58:14;7.10;;;3.93;;
2564;SDS011;1292;48.020;7.822;2023-08-17T12:00:42;4.07;;;3.70;;
2564;SDS011;1292;48.020;7.822;2023-08-17T12:03:15;4.47;;;4.07;;
2564;SDS011;1292;48.020;7.822;2023-08-17T12:05:43;4.07;;;3.77;;
2564;SDS011;1292;48.020;7.822;2023-08-17T12:08:12;4.37;;;4.03;;
2564;SDS011;1292;48.020;7.822;2023-08-17T12:10:39;4.63;;;4.20;;
2564;SDS011;1292;48.020;7.822;2023-08-17T12:13:10;4.07;;;3.67;;
2564;SDS011;1292;48.020;7.822;2023-08-17T12:15:39;4.17;;;3.70;;
2564;SDS011;1292;48.020;7.822;2023-08-17T12:18:06;3.57;;;3.27;;
2564;SDS011;1292;48.020;7.822;2023-08-17T12:20:34;10.17;;;4.50;;
2564;SDS011;1292;48.020;7.822;2023-08-17T12:23:02;5.40;;;4.03;;
2564;SDS011;1292;48.020;7.822;2023-08-17T12:25:29;5.30;;;3.80;;
2564;SDS011;1292;48.020;7.822;2023-08-17T12:27:57;3.70;;;3.40;;
2564;SDS011;1292;48.020;7.822;2023-08-17T12:30:25;5.07;;;3.90;;
2564;SDS011;1292;48.020;7.822;2023-08-17T12:32:53;5.20;;;3.87;;
2564;SDS011;1292;48.020;7.822;2023-08-17T12:35:20;5.80;;;3.90;;
2564;SDS011;1292;48.020;7.822;2023-08-17T12:37:50;6.20;;;3.60;;
2564;SDS011;1292;48.020;7.822;2023-08-17T12:40:17;5.10;;;3.70;;
2564;SDS011;1292;48.020;7.822;2023-08-17T12:42:44;5.70;;;3.70;;
2564;SDS011;1292;48.020;7.822;2023-08-17T12:45:11;6.80;;;3.60;;
2564;SDS011;1292;48.020;7.822;2023-08-17T12:47:38;7.10;;;3.67;;
2564;SDS011;1292;48.020;7.822;2023-08-17T12:50:05;7.60;;;3.40;;
2564;SDS011;1292;48.020;7.822;2023-08-17T12:52:32;4.43;;;4.03;;
2564;SDS011;1292;48.020;7.822;2023-08-17T12:55:00;5.87;;;3.70;;
2564;SDS011;1292;48.020;7.822;2023-08-17T12:57:27;5.03;;;3.90;;
2564;SDS011;1292;48.020;7.822;2023-08-17T12:59:54;5.63;;;4.07;;
2564;SDS011;1292;48.020;7.822;2023-08-17T13:02:21;6.30;;;3.53;;
2564;SDS011;1292;48.020;7.822;2023-08-17T13:04:48;5.30;;;4.30;;
2564;SDS011;1292;48.020;7.822;2023-08-17T13:07:15;4.50;;;4.20;;
2564;SDS011;1292;48.020;7.822;2023-08-17T13:09:41;3.83;;;3.53;;
2564;SDS011;1292;48.020;7.822;2023-08-17T13:12:12;5.13;;;3.83;;
2564;SDS011;1292;48.020;7.822;2023-08-17T13:14:39;5.83;;;3.43;;
2564;SDS011;1292;48.020;7.822;2023-08-17T13:17:05;5.17;;;4.37;;
2564;SDS011;1292;48.020;7.822;2023-08-17T13:19:32;6.53;;;4.10;;
2564;SDS011;1292;48.020;7.822;2023-08-17T13:21:59;4.23;;;3.70;;
2564;SDS011;1292;48.020;7.822;2023-08-17T13:24:27;8.17;;;4.10;;
2564;SDS011;1292;48.020;7.822;2023-08-17T13:26:54;4.67;;;4.13;;
2564;SDS011;1292;48.020;7.822;2023-08-17T13:29:23;4.70;;;4.30;;
2564;SDS011;1292;48.020;7.822;2023-08-17T13:31:50;4.83;;;3.90;;
2564;SDS011;1292;48.020;7.822;2023-08-17T13:34:17;7.30;;;3.80;;
2564;SDS011;1292;48.020;7.822;2023-08-17T13:36:44;6.70;;;4.27;;
2564;SDS011;1292;48.020;7.822;2023-08-17T13:39:11;6.33;;;4.80;;
2564;SDS011;1292;48.020;7.822;2023-08-17T13:41:38;4.50;;;4.10;;
2564;SDS011;1292;48.020;7.822;2023-08-17T13:44:05;4.33;;;3.97;;
2564;SDS011;1292;48.020;7.822;2023-08-17T13:46:33;7.90;;;3.67;;
2564;SDS011;1292;48.020;7.822;2023-08-17T13:49:00;3.90;;;3.60;;
2564;SDS011;1292;48.020;7.822;2023-08-17T13:51:27;4.13;;;3.27;;
2564;SDS011;1292;48.020;7.822;2023-08-17T13:53:54;4.47;;;4.10;;
2564;SDS011;1292;48.020;7.822;2023-08-17T13:56:21;4.00;;;3.70;;
2564;SDS011;1292;48.020;7.822;2023-08-17T13:58:47;4.53;;;4.07;;
2564;SDS011;1292;48.020;7.822;2023-08-17T14:01:14;7.70;;;4.33;;
2564;SDS011;1292;48.020;7.822;2023-08-17T14:03:43;4.40;;;3.70;;
2564;SDS011;1292;48.020;7.822;2023-08-17T14:06:10;3.57;;;3.30;;
2564;SDS011;1292;48.020;7.822;2023-08-17T14:08:37;7.53;;;3.80;;
2564;SDS011;1292;48.020;7.822;2023-08-17T14:11:03;4.17;;;3.50;;
2564;SDS011;1292;48.020;7.822;2023-08-17T14:13:31;5.67;;;4.07;;
2564;SDS011;1292;48.020;7.822;2023-08-17T14:15:58;3.97;;;3.57;;
2564;SDS011;1292;48.020;7.822;2023-08-17T14:18:25;5.43;;;4.33;;
2564;SDS011;1292;48.020;7.822;2023-08-17T14:20:53;4.70;;;3.70;;
2564;SDS011;1292;48.020;7.822;2023-08-17T14:23:20;3.47;;;3.17;;
2564;SDS011;1292;48.020;7.822;2023-08-17T14:25:46;6.10;;;3.97;;
2564;SDS011;1292;48.020;7.822;2023-08-17T14:28:13;7.10;;;4.13;;
2564;SDS011;1292;48.020;7.822;2023-08-17T14:30:40;6.10;;;4.90;;
2564;SDS011;1292;48.020;7.822;2023-08-17T14:33:07;5.73;;;4.50;;
2564;SDS011;1292;48.020;7.822;2023-08-17T14:35:34;7.73;;;3.93;;
2564;SDS011;1292;48.020;7.822;2023-08-17T14:38:02;8.67;;;5.30;;
2564;SDS011;1292;48.020;7.822;2023-08-17T14:40:30;4.60;;;4.20;;
2564;SDS011;1292;48.020;7.822;2023-08-17T14:42:56;6.93;;;4.60;;
2564;SDS011;1292;48.020;7.822;2023-08-17T14:45:23;4.73;;;4.33;;
2564;SDS011;1292;48.020;7.822;2023-08-17T14:47:50;4.23;;;3.93;;
2564;SDS011;1292;48.020;7.822;2023-08-17T14:50:17;7.93;;;4.90;;
2564;SDS011;1292;48.020;7.822;2023-08-17T14:52:43;4.50;;;4.00;;
2564;SDS011;1292;48.020;7.822;2023-08-17T14:55:12;7.40;;;4.27;;
2564;SDS011;1292;48.020;7.822;2023-08-17T14:57:39;6.70;;;3.67;;
2564;SDS011;1292;48.020;7.822;2023-08-17T15:00:07;4.77;;;4.37;;
2564;SDS011;1292;48.020;7.822;2023-08-17T15:02:35;6.50;;;4.87;;
2564;SDS011;1292;48.020;7.822;2023-08-17T15:05:01;8.80;;;3.63;;
2564;SDS011;1292;48.020;7.822;2023-08-17T15:07:28;5.23;;;4.57;;
2564;SDS011;1292;48.020;7.822;2023-08-17T15:09:55;4.37;;;3.97;;
2564;SDS011;1292;48.020;7.822;2023-08-17T15:12:23;8.97;;;4.57;;
2564;SDS011;1292;48.020;7.822;2023-08-17T15:14:50;5.00;;;3.90;;
2564;SDS011;1292;48.020;7.822;2023-08-17T15:17:17;4.93;;;4.53;;
2564;SDS011;1292;48.020;7.822;2023-08-17T15:19:44;5.47;;;4.97;;
2564;SDS011;1292;48.020;7.822;2023-08-17T15:22:11;4.47;;;4.07;;
2564;SDS011;1292;48.020;7.822;2023-08-17T15:24:37;5.03;;;4.60;;
2564;SDS011;1292;48.020;7.822;2023-08-17T15:27:04;4.63;;;4.30;;
2564;SDS011;1292;48.020;7.822;2023-08-17T15:29:32;4.73;;;4.27;;
2564;SDS011;1292;48.020;7.822;2023-08-17T15:31:59;4.70;;;4.30;;
2564;SDS011;1292;48.020;7.822;2023-08-17T15:34:27;4.33;;;3.87;;
2564;SDS011;1292;48.020;7.822;2023-08-17T15:36:54;5.23;;;4.33;;
2564;SDS011;1292;48.020;7.822;2023-08-17T15:39:20;4.60;;;4.20;;
2564;SDS011;1292;48.020;7.822;2023-08-17T15:41:47;4.20;;;3.70;;
2564;SDS011;1292;48.020;7.822;2023-08-17T15:44:14;6.60;;;4.60;;
2564;SDS011;1292;48.020;7.822;2023-08-17T15:46:42;6.17;;;4.70;;
2564;SDS011;1292;48.020;7.822;2023-08-17T15:49:09;4.60;;;4.17;;
2564;SDS011;1292;48.020;7.822;2023-08-17T15:51:37;3.93;;;3.63;;
2564;SDS011;1292;48.020;7.822;2023-08-17T15:54:05;4.87;;;4.10;;
2564;SDS011;1292;48.020;7.822;2023-08-17T15:56:33;6.00;;;4.47;;
2564;SDS011;1292;48.020;7.822;2023-08-17T15:59:01;4.77;;;4.13;;
2564;SDS011;1292;48.020;7.822;2023-08-17T16:01:28;6.47;;;5.07;;
2564;SDS011;1292;48.020;7.822;2023-08-17T16:03:57;4.60;;;4.20;;
2564;SDS011;1292;48.020;7.822;2023-08-17T16:06:24;4.93;;;4.53;;
2564;SDS011;1292;48.020;7.822;2023-08-17T16:08:50;4.70;;;4.30;;
2564;SDS011;1292;48.020;7.822;2023-08-17T16:11:17;5.30;;;4.80;;
2564;SDS011;1292;48.020;7.822;2023-08-17T16:13:44;5.87;;;4.80;;
2564;SDS011;1292;48.020;7.822;2023-08-17T16:16:11;4.97;;;4.57;;
2564;SDS011;1292;48.020;7.822;2023-08-17T16:18:38;5.50;;;4.20;;
2564;SDS011;1292;48.020;7.822;2023-08-17T16:21:06;6.90;;;4.60;;
2564;SDS011;1292;48.020;7.822;2023-08-17T16:23:33;4.40;;;4.00;;
2564;SDS011;1292;48.020;7.822;2023-08-17T16:26:00;5.20;;;4.70;;
2564;SDS011;1292;48.020;7.822;2023-08-17T16:28:27;4.93;;;4.47;;
2564;SDS011;1292;48.020;7.822;2023-08-17T16:30:54;6.40;;;4.60;;
2564;SDS011;1292;48.020;7.822;2023-08-17T16:33:20;6.13;;;4.83;;
2564;SDS011;1292;48.020;7.822;2023-08-17T16:35:47;4.80;;;4.40;;
2564;SDS011;1292;48.020;7.822;2023-08-17T16:38:16;5.20;;;4.80;;
2564;SDS011;1292;48.020;7.822;2023-08-17T16:40:43;4.80;;;4.10;;
2564;SDS011;1292;48.020;7.822;2023-08-17T16:43:10;4.30;;;3.80;;
2564;SDS011;1292;48.020;7.822;2023-08-17T16:45:36;5.20;;;4.23;;
2564;SDS011;1292;48.020;7.822;2023-08-17T16:48:04;6.50;;;4.47;;
2564;SDS011;1292;48.020;7.822;2023-08-17T16:50:31;4.17;;;3.77;;
2564;SDS011;1292;48.020;7.822;2023-08-17T16:52:58;4.07;;;3.77;;
2564;SDS011;1292;48.020;7.822;2023-08-17T16:55:26;4.33;;;4.00;;
2564;SDS011;1292;48.020;7.822;2023-08-17T16:57:53;4.93;;;3.77;;
2564;SDS011;1292;48.020;7.822;2023-08-17T17:00:20;4.30;;;4.00;;
2564;SDS011;1292;48.020;7.822;2023-08-17T17:02:47;6.23;;;4.50;;
2564;SDS011;1292;48.020;7.822;2023-08-17T17:05:13;6.23;;;4.40;;
2564;SDS011;1292;48.020;7.822;2023-08-17T17:07:41;7.90;;;4.43;;
2564;SDS011;1292;48.020;7.822;2023-08-17T17:10:08;11.03;;;5.20;;
2564;SDS011;1292;48.020;7.822;2023-08-17T17:12:37;7.57;;;4.83;;
2564;SDS011;1292;48.020;7.822;2023-08-17T17:15:05;4.60;;;4.20;;
2564;SDS011;1292;48.020;7.822;2023-08-17T17:17:33;5.70;;;5.07;;
2564;SDS011;1292;48.020;7.822;2023-08-17T17:20:00;7.10;;;4.53;;
2564;SDS011;1292;48.020;7.822;2023-08-17T17:22:28;4.83;;;4.13;;
2564;SDS011;1292;48.020;7.822;2023-08-17T17:24:54;4.77;;;4.37;;
2564;SDS011;1292;48.020;7.822;2023-08-17T17:27:21;7.23;;;5.27;;
2564;SDS011;1292;48.020;7.822;2023-08-17T17:29:49;5.63;;;4.10;;
2564;SDS011;1292;48.020;7.822;2023-08-17T17:32:16;4.60;;;4.20;;
2564;SDS011;1292;48.020;7.822;2023-08-17T17:34:43;4.70;;;4.30;;
2564;SDS011;1292;48.020;7.822;2023-08-17T17:37:10;6.83;;;4.77;;
2564;SDS011;1292;48.020;7.822;2023-08-17T17:39:37;4.83;;;4.30;;
2564;SDS011;1292;48.020;7.822;2023-08-17T17:42:04;7.23;;;4.70;;
2564;SDS011;1292;48.020;7.822;2023-08-17T17:44:31;5.57;;;4.80;;
2564;SDS011;1292;48.020;7.822;2023-08-17T17:46:59;3.53;;;3.33;;
2564;SDS011;1292;48.020;7.822;2023-08-17T17:49:26;5.07;;;3.90;;
2564;SDS011;1292;48.020;7.822;2023-08-17T17:51:53;4.63;;;4.13;;
2564;SDS011;1292;48.020;7.822;2023-08-17T17:54:20;4.70;;;4.40;;
2564;SDS011;1292;48.020;7.822;2023-08-17T17:56:46;4.83;;;4.10;;
2564;SDS011;1292;48.020;7.822;2023-08-17T17:59:13;6.37;;;4.80;;
2564;SDS011;1292;48.020;7.822;2023-08-17T18:01:40;7.03;;;5.07;;
2564;SDS011;1292;48.020;7.822;2023-08-17T18:04:08;5.23;;;4.30;;
2564;SDS011;1292;48.020;7.822;2023-08-17T18:06:35;4.60;;;4.27;;
2564;SDS011;1292;48.020;7.822;2023-08-17T18:09:02;10.33;;;4.33;;
2564;SDS011;1292;48.020;7.822;2023-08-17T18:11:31;5.77;;;4.40;;
2564;SDS011;1292;48.020;7.822;2023-08-17T18:13:58;5.40;;;4.30;;
2564;SDS011;1292;48.020;7.822;2023-08-17T18:16:24;5.57;;;4.10;;
2564;SDS011;1292;48.020;7.822;2023-08-17T18:18:52;5.37;;;4.90;;
2564;SDS011;1292;48.020;7.822;2023-08-17T18:21:20;4.47;;;4.07;;
2564;SDS011;1292;48.020;7.822;2023-08-17T18:23:48;5.70;;;4.57;;
2564;SDS011;1292;48.020;7.822;2023-08-17T18:26:15;8.80;;;5.70;;
2564;SDS011;1292;48.020;7.822;2023-08-17T18:28:42;5.47;;;4.93;;
2564;SDS011;1292;48.020;7.822;2023-08-17T18:31:09;6.70;;;5.50;;
2564;SDS011;1292;48.020;7.822;2023-08-17T18:33:35;8.33;;;4.80;;
2564;SDS011;1292;48.020;7.822;2023-08-17T18:36:02;4.93;;;4.53;;
2564;SDS011;1292;48.020;7.822;2023-08-17T18:38:31;5.93;;;4.87;;
2564;SDS011;1292;48.020;7.822;2023-08-17T18:41:05;5.67;;;4.73;;
2564;SDS011;1292;48.020;7.822;2023-08-17T18:43:33;5.30;;;4.90;;
2564;SDS011;1292;48.020;7.822;2023-08-17T18:46:00;5.10;;;4.57;;
2564;SDS011;1292;48.020;7.822;2023-08-17T18:48:27;5.80;;;5.30;;
2564;SDS011;1292;48.020;7.822;2023-08-17T18:50:55;8.60;;;5.80;;
2564;SDS011;1292;48.020;7.822;2023-08-17T18:53:22;6.63;;;4.50;;
2564;SDS011;1292;48.020;7.822;2023-08-17T18:55:50;9.73;;;4.80;;
2564;SDS011;1292;48.020;7.822;2023-08-17T18:58:17;7.17;;;5.10;;
2564;SDS011;1292;48.020;7.822;2023-08-17T19:00:45;6.17;;;5.20;;
2564;SDS011;1292;48.020;7.822;2023-08-17T19:03:12;5.93;;;5.33;;
2564;SDS011;1292;48.020;7.822;2023-08-17T19:05:39;5.07;;;4.43;;
2564;SDS011;1292;48.020;7.822;2023-08-17T19:08:05;5.83;;;5.10;;
2564;SDS011;1292;48.020;7.822;2023-08-17T19:10:32;5.90;;;5.07;;
2564;SDS011;1292;48.020;7.822;2023-08-17T19:13:00;7.37;;;5.90;;
2564;SDS011;1292;48.020;7.822;2023-08-17T19:15:27;5.17;;;4.73;;
2564;SDS011;1292;48.020;7.822;2023-08-17T19:17:54;9.13;;;5.80;;
2564;SDS011;1292;48.020;7.822;2023-08-17T19:20:21;5.40;;;4.90;;
2564;SDS011;1292;48.020;7.822;2023-08-17T19:22:48;5.50;;;5.00;;
2564;SDS011;1292;48.020;7.822;2023-08-17T19:25:15;9.43;;;5.43;;
2564;SDS011;1292;48.020;7.822;2023-08-17T19:27:41;6.27;;;4.73;;
2564;SDS011;1292;48.020;7.822;2023-08-17T19:30:10;10.17;;;5.17;;
2564;SDS011;1292;48.020;7.822;2023-08-17T19:32:38;5.23;;;4.80;;
2564;SDS011;1292;48.020;7.822;2023-08-17T19:35:06;6.67;;;5.23;;
2564;SDS011;1292;48.020;7.822;2023-08-17T19:37:33;5.27;;;4.83;;
2564;SDS011;1292;48.020;7.822;2023-08-17T19:40:00;4.77;;;4.33;;
2564;SDS011;1292;48.020;7.822;2023-08-17T19:42:28;5.47;;;4.97;;
2564;SDS011;1292;48.020;7.822;2023-08-17T19:44:55;6.90;;;4.70;;
2564;SDS011;1292;48.020;7.822;2023-08-17T19:47:23;5.57;;;5.07;;
2564;SDS011;1292;48.020;7.822;2023-08-17T19:49:50;5.40;;;4.90;;
2564;SDS011;1292;48.020;7.822;2023-08-17T19:52:16;5.47;;;4.87;;
2564;SDS011;1292;48.020;7.822;2023-08-17T19:54:44;6.13;;;4.93;;
2564;SDS011;1292;48.020;7.822;2023-08-17T19:57:16;4.90;;;4.50;;
2564;SDS011;1292;48.020;7.822;2023-08-17T19:59:43;6.30;;;5.10;;
2564;SDS011;1292;48.020;7.822;2023-08-17T20:02:10;5.57;;;4.97;;
2564;SDS011;1292;48.020;7.822;2023-08-17T20:04:39;5.43;;;4.83;;
2564;SDS011;1292;48.020;7.822;2023-08-17T20:07:05;6.83;;;4.37;;
2564;SDS011;1292;48.020;7.822;2023-08-17T20:09:32;5.13;;;4.63;;
2564;SDS011;1292;48.020;7.822;2023-08-17T20:11:59;6.90;;;5.07;;
2564;SDS011;1292;48.020;7.822;2023-08-17T20:14:26;5.50;;;4.70;;
2564;SDS011;1292;48.020;7.822;2023-08-17T20:16:53;5.40;;;4.57;;
2564;SDS011;1292;48.020;7.822;2023-08-17T20:19:20;7.43;;;5.40;;
2564;SDS011;1292;48.020;7.822;2023-08-17T20:21:48;13.90;;;5.30;;
2564;SDS011;1292;48.020;7.822;2023-08-17T20:24:15;11.23;;;5.90;;
2564;SDS011;1292;48.020;7.822;2023-08-17T20:26:42;8.70;;;4.73;;
2564;SDS011;1292;48.020;7.822;2023-08-17T20:29:09;7.23;;;5.30;;
2564;SDS011;1292;48.020;7.822;2023-08-17T20:31:36;6.73;;;5.23;;
2564;SDS011;1292;48.020;7.822;2023-08-17T20:34:03;7.27;;;5.50;;
2564;SDS011;1292;48.020;7.822;2023-08-17T20:36:30;7.27;;;5.53;;
2564;SDS011;1292;48.020;7.822;2023-08-17T20:38:58;5.40;;;4.90;;
2564;SDS011;1292;48.020;7.822;2023-08-17T20:41:32;6.30;;;5.17;;
2564;SDS011;1292;48.020;7.822;2023-08-17T20:43:58;9.97;;;4.97;;
2564;SDS011;1292;48.020;7.822;2023-08-17T20:46:25;4.97;;;4.50;;
2564;SDS011;1292;48.020;7.822;2023-08-17T20:48:52;8.00;;;6.00;;
2564;SDS011;1292;48.020;7.822;2023-08-17T20:51:20;7.60;;;4.80;;
2564;SDS011;1292;48.020;7.822;2023-08-17T20:53:46;7.97;;;5.53;;
2564;SDS011;1292;48.020;7.822;2023-08-17T20:56:14;9.83;;;6.10;;
2564;SDS011;1292;48.020;7.822;2023-08-17T20:58:41;6.10;;;5.50;;